Time;durP1;ratioP1;P1;durP2;ratioP2;P2;SDS_P1;SDS_P2;PMS_P1;PMS_P2;Temp;Humidity;BMP_temperature;BMP_pressure;BME280_temperature;BME280_humidity;BME280_pressure;Samples;Min_cycle;Max_cycle;Signal;HPM_P1;HPM_P2
2021/07/12 00:01:16;;;;;;;16.98;15.48;;;14.50;82.10;;;;;;5022755;29;20178;-68
2021/07/12 00:03:48;;;;;;;17.20;15.80;;;14.50;82.50;;;;;;5023824;29;20065;-67
2021/07/12 00:06:20;;;;;;;17.10;15.70;;;14.40;82.60;;;;;;5024571;29;20459;-69
2021/07/12 00:08:52;;;;;;;17.08;15.77;;;14.40;82.10;;;;;;5023381;29;20073;-68
2021/07/12 00:11:24;;;;;;;17.17;15.88;;;14.30;82.50;;;;;;5024903;29;20509;-68
2021/07/12 00:13:57;;;;;;;16.38;15.18;;;14.20;82.90;;;;;;5023807;29;20141;-67
2021/07/12 00:16:29;;;;;;;16.73;15.43;;;14.20;83.00;;;;;;5023996;29;21089;-67
2021/07/12 00:19:01;;;;;;;16.73;15.43;;;14.30;82.80;;;;;;5024671;29;20045;-68
2021/07/12 00:21:33;;;;;;;16.58;15.30;;;14.20;82.90;;;;;;5022450;29;20080;-68
2021/07/12 00:24:04;;;;;;;16.48;15.15;;;14.20;82.50;;;;;;5023778;29;20542;-68
2021/07/12 00:26:36;;;;;;;16.48;15.18;;;14.20;82.70;;;;;;5017383;29;20069;-69
2021/07/12 00:29:08;;;;;;;17.10;15.80;;;14.00;83.30;;;;;;5024094;29;20907;-70
2021/07/12 00:31:40;;;;;;;17.10;15.80;;;14.00;83.10;;;;;;5037993;29;20049;-68
2021/07/12 00:34:12;;;;;;;17.95;16.35;;;14.10;83.80;;;;;;5022114;29;20061;-68
2021/07/12 00:36:44;;;;;;;17.10;15.80;;;14.00;83.30;;;;;;5024354;29;20050;-67
2021/07/12 00:39:18;;;;;;;17.33;15.82;;;14.10;83.40;;;;;;5021780;29;20777;-69
2021/07/12 00:41:50;;;;;;;17.33;15.73;;;14.10;83.00;;;;;;5035443;29;20050;-67
2021/07/12 00:44:23;;;;;;;16.85;15.55;;;14.10;82.50;;;;;;5019302;29;20124;-67
2021/07/12 00:46:55;;;;;;;16.55;15.25;;;14.10;82.20;;;;;;5021061;29;20098;-67
2021/07/12 00:49:27;;;;;;;17.38;15.98;;;14.10;82.50;;;;;;5022234;29;20422;-68
2021/07/12 00:52:01;;;;;;;17.00;15.60;;;14.00;83.10;;;;;;5020576;29;20045;-69
2021/07/12 00:54:35;;;;;;;17.25;15.85;;;13.80;83.50;;;;;;5034290;29;20114;-67
2021/07/12 00:57:07;;;;;;;17.42;16.13;;;13.80;84.00;;;;;;5021676;29;20966;-68
2021/07/12 00:59:39;;;;;;;18.00;16.60;;;13.80;84.20;;;;;;5020097;29;20058;-68
2021/07/12 01:02:11;;;;;;;17.27;15.98;;;13.80;84.10;;;;;;5034861;29;20049;-68
2021/07/12 01:04:44;;;;;;;17.45;16.08;;;13.80;84.20;;;;;;5033716;29;20700;-69
2021/07/12 01:07:18;;;;;;;17.30;16.00;;;13.80;84.10;;;;;;5019846;29;20128;-68
2021/07/12 01:09:51;;;;;;;17.55;16.13;;;13.80;84.10;;;;;;5020221;29;20049;-67
2021/07/12 01:12:33;;;;;;;17.55;16.13;;;13.90;83.90;;;;;;5020275;29;20172;-68
2021/07/12 01:15:22;;;;;;;16.90;15.60;;;13.80;83.50;;;;;;5017680;29;20052;-67
2021/07/12 01:18:59;;;;;;;17.77;16.38;;;13.80;83.60;;;;;;5019548;29;20239;-68
2021/07/12 01:21:58;;;;;;;18.00;16.50;;;13.80;83.60;;;;;;5013321;29;20045;-69
2021/07/12 01:25:13;;;;;;;17.97;16.57;;;13.80;83.90;;;;;;5020185;29;20049;-68
2021/07/12 01:27:48;;;;;;;17.60;16.30;;;13.80;83.60;;;;;;5020421;29;20060;-67
2021/07/12 01:30:51;;;;;;;17.73;16.33;;;13.80;83.10;;;;;;5019449;29;20076;-68
2021/07/12 01:33:37;;;;;;;17.65;16.27;;;13.80;82.70;;;;;;5021056;29;20073;-67
2021/07/12 01:36:29;;;;;;;18.20;16.70;;;13.80;82.60;;;;;;5019410;29;20160;-67
2021/07/12 01:39:06;;;;;;;17.60;16.13;;;13.80;82.10;;;;;;5019038;29;20061;-68
2021/07/12 01:41:48;;;;;;;17.52;16.05;;;13.70;82.10;;;;;;5034500;29;20045;-68
2021/07/12 01:44:24;;;;;;;17.90;16.50;;;13.70;82.10;;;;;;5018981;29;20172;-68
2021/07/12 01:47:05;;;;;;;21.73;17.17;;;13.80;82.50;;;;;;5019133;29;20045;-68
2021/07/12 01:49:55;;;;;;;17.95;16.55;;;13.70;82.60;;;;;;5032911;29;20807;-67
2021/07/12 01:52:48;;;;;;;17.88;16.35;;;13.60;82.40;;;;;;5015259;29;20200;-67
2021/07/12 01:55:50;;;;;;;18.20;16.73;;;13.70;82.20;;;;;;5015604;29;20168;-68
2021/07/12 01:58:36;;;;;;;17.38;16.05;;;13.70;82.20;;;;;;5006306;29;20053;-67
2021/07/12 02:01:11;;;;;;;18.05;16.55;;;13.60;82.20;;;;;;5019722;29;20181;-68
2021/07/12 02:03:44;;;;;;;18.30;16.90;;;13.60;82.40;;;;;;5034468;29;20482;-67
2021/07/12 02:06:20;;;;;;;17.60;16.20;;;13.60;82.70;;;;;;5019650;29;20060;-67
2021/07/12 02:08:54;;;;;;;17.80;16.40;;;13.60;82.40;;;;;;5020074;29;20053;-68
2021/07/12 02:11:42;;;;;;;17.52;15.95;;;13.50;82.50;;;;;;5020272;29;20053;-67
2021/07/12 02:14:19;;;;;;;18.17;16.67;;;13.60;83.30;;;;;;5014369;29;20169;-67
2021/07/12 02:16:55;;;;;;;17.25;15.95;;;13.50;82.60;;;;;;5015179;29;20057;-66
2021/07/12 02:19:34;;;;;;;17.35;15.95;;;13.40;82.30;;;;;;5033330;29;20114;-68
2021/07/12 02:22:07;;;;;;;17.50;16.10;;;13.40;82.30;;;;;;5018689;29;20947;-67
2021/07/12 02:24:57;;;;;;;17.50;16.20;;;13.40;81.80;;;;;;5017661;29;20049;-68
2021/07/12 02:27:32;;;;;;;17.25;15.95;;;13.40;82.10;;;;;;5013932;29;20347;-67
2021/07/12 02:30:08;;;;;;;17.20;15.70;;;13.40;82.10;;;;;;5018181;29;20094;-68
2021/07/12 02:32:43;;;;;;;17.30;16.00;;;13.30;82.80;;;;;;5033123;29;20049;-68
2021/07/12 02:35:16;;;;;;;18.00;16.60;;;13.30;83.10;;;;;;5018462;29;21105;-68
2021/07/12 02:37:51;;;;;;;17.77;16.20;;;13.10;83.10;;;;;;5019085;29;20042;-68
2021/07/12 02:40:24;;;;;;;17.80;16.27;;;13.10;83.70;;;;;;5018070;29;20556;-67
2021/07/12 02:42:58;;;;;;;17.10;15.80;;;13.10;83.60;;;;;;5019046;29;20153;-67
2021/07/12 02:45:31;;;;;;;17.33;16.02;;;13.10;83.60;;;;;;5000710;29;20121;-67
2021/07/12 02:48:06;;;;;;;17.10;15.80;;;13.10;83.90;;;;;;5017314;29;20033;-68
2021/07/12 02:50:42;;;;;;;16.88;15.48;;;13.10;84.10;;;;;;5017135;29;20854;-67
2021/07/12 02:53:22;;;;;;;17.20;15.75;;;13.10;83.60;;;;;;5019202;29;20137;-68
2021/07/12 02:55:54;;;;;;;17.60;16.25;;;13.10;83.40;;;;;;5018698;29;20117;-67
2021/07/12 02:58:27;;;;;;;17.83;16.38;;;13.10;83.40;;;;;;5018128;29;20081;-67
2021/07/12 03:00:59;;;;;;;16.88;15.57;;;13.10;83.40;;;;;;5014512;29;20426;-68
2021/07/12 03:03:33;;;;;;;16.90;15.60;;;13.10;83.50;;;;;;5017034;29;20037;-68
2021/07/12 03:06:11;;;;;;;17.25;15.95;;;13.10;83.80;;;;;;5031895;29;20069;-68
2021/07/12 03:09:04;;;;;;;17.92;16.45;;;13.10;83.20;;;;;;5018342;29;20056;-68
2021/07/12 03:11:48;;;;;;;17.52;16.02;;;13.10;82.80;;;;;;5001306;29;20103;-67
2021/07/12 03:14:40;;;;;;;17.00;15.60;;;13.00;82.90;;;;;;5013462;29;20133;-69
2021/07/12 03:17:16;;;;;;;17.52;15.90;;;13.00;82.70;;;;;;5017141;29;20041;-67
2021/07/12 03:19:52;;;;;;;17.00;15.63;;;13.00;82.60;;;;;;5016884;29;20516;-68
2021/07/12 03:22:26;;;;;;;17.23;15.73;;;13.00;82.90;;;;;;5017632;29;20055;-67
2021/07/12 03:24:59;;;;;;;17.48;16.05;;;12.90;83.90;;;;;;5017825;29;20046;-67
2021/07/12 03:27:32;;;;;;;17.98;16.48;;;12.80;84.00;;;;;;5016951;29;20077;-68
2021/07/12 03:30:05;;;;;;;17.73;16.20;;;12.80;83.60;;;;;;5019195;29;20065;-67
2021/07/12 03:32:44;;;;;;;17.45;16.15;;;12.80;83.30;;;;;;5018241;29;20402;-67
2021/07/12 03:35:17;;;;;;;16.90;15.60;;;12.80;83.10;;;;;;5013769;29;20065;-67
2021/07/12 03:37:50;;;;;;;17.48;16.08;;;12.80;82.70;;;;;;5017698;29;20046;-67
2021/07/12 03:40:23;;;;;;;16.90;15.60;;;12.80;82.70;;;;;;5032006;29;20052;-68
2021/07/12 03:42:57;;;;;;;17.42;16.02;;;12.80;82.70;;;;;;5032856;29;20138;-67
2021/07/12 03:45:29;;;;;;;17.27;15.98;;;12.80;82.70;;;;;;5011936;29;20080;-66
2021/07/12 03:48:01;;;;;;;17.63;16.23;;;12.80;82.90;;;;;;5032113;29;20045;-66
2021/07/12 03:50:41;;;;;;;17.20;15.90;;;12.80;83.40;;;;;;5032416;29;20510;-67
2021/07/12 03:53:12;;;;;;;17.60;16.00;;;12.70;83.60;;;;;;5018738;29;20211;-66
2021/07/12 03:55:44;;;;;;;17.60;16.27;;;12.70;83.80;;;;;;5031018;29;20753;-66
2021/07/12 03:58:16;;;;;;;17.63;15.82;;;12.70;83.90;;;;;;5019370;29;20172;-66
2021/07/12 04:00:48;;;;;;;17.40;16.00;;;12.70;84.10;;;;;;5017665;29;20145;-67
2021/07/12 04:03:20;;;;;;;17.13;15.73;;;12.70;83.50;;;;;;5018333;29;20049;-66
2021/07/12 04:05:52;;;;;;;17.05;15.75;;;12.70;83.30;;;;;;5017343;29;20105;-67
2021/07/12 04:08:25;;;;;;;17.30;15.82;;;12.70;83.40;;;;;;5017378;29;20060;-66
2021/07/12 04:10:56;;;;;;;17.63;16.23;;;12.70;83.30;;;;;;5017132;29;20058;-66
2021/07/12 04:13:28;;;;;;;17.50;16.10;;;12.70;82.80;;;;;;5017553;29;20141;-67
2021/07/12 04:16:00;;;;;;;16.80;15.38;;;12.70;83.00;;;;;;5017751;29;20071;-68
2021/07/12 04:18:34;;;;;;;16.80;15.60;;;12.60;83.50;;;;;;5021110;29;20466;-68
2021/07/12 04:21:06;;;;;;;16.33;15.00;;;12.60;84.20;;;;;;5019091;29;20099;-67
2021/07/12 04:23:38;;;;;;;16.75;15.45;;;12.60;84.80;;;;;;5018167;29;20102;-67
2021/07/12 04:26:10;;;;;;;17.30;15.65;;;12.60;85.30;;;;;;5019033;29;20049;-68
2021/07/12 04:28:42;;;;;;;16.52;15.30;;;12.60;84.90;;;;;;5021221;29;20049;-66
2021/07/12 04:31:14;;;;;;;16.35;15.02;;;12.60;84.90;;;;;;5019869;29;20115;-67
2021/07/12 04:33:46;;;;;;;16.40;15.20;;;12.70;84.80;;;;;;5018605;29;20429;-66
2021/07/12 04:36:18;;;;;;;16.80;15.50;;;12.60;84.00;;;;;;5020351;29;20145;-68
2021/07/12 04:38:50;;;;;;;16.63;15.43;;;12.70;84.20;;;;;;5020833;29;20136;-67
2021/07/12 04:41:22;;;;;;;17.00;15.68;;;12.70;83.80;;;;;;5021343;29;20053;-67
2021/07/12 04:43:56;;;;;;;16.60;15.30;;;12.80;84.00;;;;;;5020292;29;20081;-67
2021/07/12 04:46:28;;;;;;;17.35;16.00;;;12.90;83.40;;;;;;5019960;29;20037;-67
2021/07/12 04:49:00;;;;;;;17.30;15.77;;;13.00;85.00;;;;;;5021176;29;20121;-68
2021/07/12 04:51:33;;;;;;;16.77;15.32;;;13.10;84.60;;;;;;5018866;29;20113;-69
2021/07/12 04:54:05;;;;;;;16.42;15.23;;;13.20;84.30;;;;;;5018706;29;20093;-68
2021/07/12 04:56:37;;;;;;;17.17;15.82;;;13.30;84.20;;;;;;5016913;29;20057;-68
2021/07/12 04:59:10;;;;;;;16.90;15.60;;;13.40;84.30;;;;;;5020721;29;20060;-68
2021/07/12 05:01:42;;;;;;;15.85;14.65;;;13.50;84.80;;;;;;5018676;29;20137;-68
2021/07/12 05:04:14;;;;;;;16.33;15.13;;;13.60;84.30;;;;;;5016324;29;20046;-68
2021/07/12 05:06:46;;;;;;;17.20;15.90;;;13.80;84.90;;;;;;5019290;29;20145;-69
2021/07/12 05:09:18;;;;;;;16.60;15.40;;;14.00;85.00;;;;;;5020248;29;20472;-69
2021/07/12 05:11:51;;;;;;;16.45;15.23;;;14.00;84.60;;;;;;5020703;29;20098;-69
2021/07/12 05:14:24;;;;;;;16.83;15.50;;;14.10;84.10;;;;;;5017791;29;20057;-69
2021/07/12 05:16:56;;;;;;;16.98;15.68;;;14.30;84.20;;;;;;5020697;29;20057;-69
2021/07/12 05:19:27;;;;;;;17.30;15.90;;;14.40;83.50;;;;;;5018961;29;20076;-69
2021/07/12 05:22:00;;;;;;;17.05;15.75;;;14.50;83.40;;;;;;5016519;29;20041;-69
2021/07/12 05:24:32;;;;;;;16.63;15.35;;;14.70;83.30;;;;;;5018446;29;20034;-68
2021/07/12 05:27:04;;;;;;;17.02;15.73;;;14.80;83.50;;;;;;5018214;29;20526;-69
2021/07/12 05:29:36;;;;;;;16.83;15.60;;;14.90;82.50;;;;;;5020449;29;20045;-69
2021/07/12 05:32:08;;;;;;;16.95;15.57;;;15.00;82.90;;;;;;5019890;29;20045;-69
2021/07/12 05:34:40;;;;;;;16.73;15.43;;;15.10;82.60;;;;;;5019839;29;20129;-69
2021/07/12 05:37:12;;;;;;;16.95;15.60;;;15.30;82.50;;;;;;5019172;29;20046;-69
2021/07/12 05:39:44;;;;;;;16.92;15.68;;;15.40;82.40;;;;;;5019323;29;20062;-69
2021/07/12 05:42:16;;;;;;;17.38;16.02;;;15.50;81.50;;;;;;5021031;29;20038;-69
2021/07/12 05:44:48;;;;;;;16.92;15.60;;;15.60;81.90;;;;;;5015877;29;20054;-69
2021/07/12 05:47:19;;;;;;;17.25;15.75;;;15.80;80.60;;;;;;5020523;29;20041;-69
2021/07/12 05:49:51;;;;;;;16.85;15.52;;;15.90;80.50;;;;;;5019113;29;20041;-69
2021/07/12 05:52:23;;;;;;;16.90;15.43;;;16.00;80.20;;;;;;5019775;29;20142;-69
2021/07/12 05:54:55;;;;;;;16.80;15.50;;;16.10;80.30;;;;;;5018138;29;20113;-69
2021/07/12 05:57:27;;;;;;;17.15;15.75;;;16.10;80.00;;;;;;5020131;29;20145;-69
2021/07/12 05:59:59;;;;;;;17.75;16.25;;;16.20;80.80;;;;;;5019678;29;20124;-71
2021/07/12 06:02:31;;;;;;;18.15;16.55;;;16.20;80.90;;;;;;5017515;29;20069;-69
2021/07/12 06:05:04;;;;;;;21.25;16.83;;;16.30;80.10;;;;;;5019259;29;20071;-68
2021/07/12 06:07:37;;;;;;;17.20;15.80;;;16.30;80.20;;;;;;5019385;29;20097;-69
2021/07/12 06:10:09;;;;;;;16.95;15.65;;;16.40;80.60;;;;;;5018458;29;20128;-69
2021/07/12 06:12:41;;;;;;;17.63;16.30;;;16.60;80.40;;;;;;5020483;29;20125;-69
2021/07/12 06:15:13;;;;;;;124.60;24.98;;;16.60;79.20;;;;;;5017370;29;20141;-70
2021/07/12 06:17:48;;;;;;;557.25;72.55;;;16.80;79.00;;;;;;5018195;29;20057;-69
2021/07/12 06:20:20;;;;;;;548.55;74.22;;;16.90;79.30;;;;;;5018643;29;20049;-69
2021/07/12 06:22:52;;;;;;;395.67;51.75;;;17.00;80.00;;;;;;5020134;29;20132;-69
2021/07/12 06:25:27;;;;;;;173.45;32.10;;;17.10;78.90;;;;;;5017417;29;20121;-69
2021/07/12 06:27:59;;;;;;;24.45;17.25;;;17.30;78.20;;;;;;5019905;29;20078;-70
2021/07/12 06:30:31;;;;;;;20.13;16.63;;;17.30;78.40;;;;;;5018932;29;20144;-70
2021/07/12 06:33:04;;;;;;;18.63;16.60;;;17.50;78.00;;;;;;5018047;29;20452;-70
2021/07/12 06:35:36;;;;;;;17.50;16.00;;;17.60;77.20;;;;;;5018971;29;20106;-72
2021/07/12 06:38:08;;;;;;;17.33;15.98;;;17.70;77.00;;;;;;5017618;29;20162;-70
2021/07/12 06:40:40;;;;;;;17.70;16.20;;;17.80;77.30;;;;;;5019131;29;20077;-70
2021/07/12 06:43:12;;;;;;;17.58;16.17;;;17.90;75.50;;;;;;5019659;29;20073;-69
2021/07/12 06:45:45;;;;;;;17.20;15.75;;;18.00;75.00;;;;;;5031376;29;20054;-70
2021/07/12 06:48:18;;;;;;;17.80;16.25;;;18.00;75.20;;;;;;5019137;29;20038;-70
2021/07/12 06:50:56;;;;;;;17.40;15.90;;;18.10;73.90;;;;;;5032766;29;20459;-70
2021/07/12 06:53:38;;;;;;;17.73;16.02;;;18.10;75.70;;;;;;5017924;29;20052;-70
2021/07/12 06:56:13;;;;;;;17.95;16.27;;;18.20;72.60;;;;;;5001222;29;20072;-70
2021/07/12 06:58:45;;;;;;;17.52;16.23;;;18.30;73.70;;;;;;5018892;29;20049;-71
2021/07/12 07:01:17;;;;;;;17.38;15.98;;;18.40;72.20;;;;;;5019258;29;20057;-70
2021/07/12 07:03:49;;;;;;;17.15;15.85;;;18.60;73.20;;;;;;5032854;29;20105;-69
2021/07/12 07:06:21;;;;;;;18.00;16.35;;;18.60;71.70;;;;;;5016423;29;20137;-72
2021/07/12 07:08:54;;;;;;;17.58;16.08;;;18.60;72.80;;;;;;5017152;29;20052;-71
2021/07/12 07:11:26;;;;;;;17.50;16.20;;;18.70;73.30;;;;;;5018312;29;20050;-70
2021/07/12 07:13:59;;;;;;;17.45;16.02;;;18.80;70.30;;;;;;5017381;29;20041;-70
2021/07/12 07:16:31;;;;;;;17.35;15.95;;;18.80;69.80;;;;;;5015907;29;20057;-70
2021/07/12 07:19:03;;;;;;;17.70;16.30;;;18.90;70.30;;;;;;5030885;29;20129;-70
2021/07/12 07:21:36;;;;;;;18.33;16.85;;;19.00;68.80;;;;;;5032414;29;20060;-70
2021/07/12 07:24:08;;;;;;;17.48;16.17;;;19.20;70.20;;;;;;5017490;29;20487;-70
2021/07/12 07:26:40;;;;;;;17.73;16.42;;;19.30;69.70;;;;;;5018911;29;20046;-70
2021/07/12 07:29:12;;;;;;;18.10;16.60;;;19.30;68.50;;;;;;5016990;29;20125;-70
2021/07/12 07:31:44;;;;;;;17.58;16.27;;;19.40;70.00;;;;;;5019019;29;20137;-70
2021/07/12 07:34:36;;;;;;;17.60;16.30;;;19.60;68.70;;;;;;5018394;29;20544;-70
2021/07/12 07:37:09;;;;;;;18.02;16.73;;;19.70;67.20;;;;;;5019274;29;20140;-70
2021/07/12 07:39:41;;;;;;;17.73;16.33;;;19.90;66.80;;;;;;5018772;29;20098;-70
2021/07/12 07:42:26;;;;;;;18.05;16.55;;;19.90;65.10;;;;;;5018899;29;20049;-71
2021/07/12 07:45:00;;;;;;;18.13;16.75;;;20.10;65.60;;;;;;5018089;29;20061;-70
2021/07/12 07:47:33;;;;;;;18.67;17.27;;;20.20;65.40;;;;;;5017360;29;20056;-70
2021/07/12 07:50:22;;;;;;;18.35;16.95;;;20.30;66.20;;;;;;5017866;29;20178;-70
2021/07/12 07:52:55;;;;;;;18.63;17.13;;;20.40;65.30;;;;;;5023236;29;20054;-70
2021/07/12 07:55:27;;;;;;;19.25;17.55;;;20.50;67.20;;;;;;5021008;29;20094;-70
2021/07/12 07:57:59;;;;;;;18.73;17.23;;;20.70;69.40;;;;;;5022530;29;20056;-70
2021/07/12 08:00:31;;;;;;;18.85;17.33;;;20.80;66.10;;;;;;5020917;29;20514;-72
2021/07/12 08:03:04;;;;;;;18.08;16.52;;;20.80;63.60;;;;;;5022984;29;20049;-72
2021/07/12 08:05:36;;;;;;;18.67;17.25;;;20.80;62.10;;;;;;5020680;29;20053;-70
2021/07/12 08:08:08;;;;;;;18.33;16.80;;;20.90;63.00;;;;;;5022881;29;20077;-70
2021/07/12 08:10:40;;;;;;;18.10;16.70;;;20.90;65.80;;;;;;5021375;29;20045;-70
2021/07/12 08:13:13;;;;;;;18.80;17.38;;;21.10;62.00;;;;;;5023293;29;20138;-70
2021/07/12 08:15:45;;;;;;;18.80;17.40;;;21.20;64.50;;;;;;5020653;29;20061;-71
2021/07/12 08:18:17;;;;;;;18.35;16.70;;;21.30;61.20;;;;;;5021496;29;20067;-71
2021/07/12 08:20:49;;;;;;;19.13;17.52;;;21.40;64.70;;;;;;5020529;29;20052;-72
2021/07/12 08:23:23;;;;;;;18.65;17.25;;;21.50;64.70;;;;;;5020793;29;20085;-70
2021/07/12 08:25:55;;;;;;;18.95;17.55;;;21.60;65.40;;;;;;5021218;29;20081;-70
2021/07/12 08:28:27;;;;;;;433.08;55.50;;;21.60;66.30;;;;;;5021544;29;20045;-71
2021/07/12 08:30:59;;;;;;;19.48;17.77;;;21.80;65.90;;;;;;5035916;29;20069;-70
2021/07/12 08:33:31;;;;;;;18.42;17.02;;;21.80;66.10;;;;;;5014531;29;20144;-71
2021/07/12 08:36:04;;;;;;;19.20;17.80;;;21.80;65.50;;;;;;5020173;29;20098;-72
2021/07/12 08:38:36;;;;;;;19.33;17.67;;;21.90;67.20;;;;;;5021185;29;20137;-71
2021/07/12 08:41:08;;;;;;;19.40;17.80;;;22.00;67.30;;;;;;5020882;29;20049;-70
2021/07/12 08:43:40;;;;;;;19.20;17.70;;;22.00;66.50;;;;;;5021464;29;20056;-70
2021/07/12 08:46:23;;;;;;;75.30;23.25;;;22.20;67.70;;;;;;5034981;29;20072;-70
2021/07/12 08:48:55;;;;;;;28.48;19.27;;;22.30;66.80;;;;;;5021850;29;20057;-70
2021/07/12 08:51:30;;;;;;;18.63;17.13;;;22.30;66.30;;;;;;5022021;29;20593;-72
2021/07/12 08:54:02;;;;;;;18.55;16.95;;;22.30;66.40;;;;;;5021062;29;20636;-70
2021/07/12 08:56:34;;;;;;;18.38;17.08;;;22.40;66.10;;;;;;5020458;29;20137;-70
2021/07/12 08:59:45;;;;;;;18.55;17.15;;;22.50;67.70;;;;;;5021781;29;20057;-71
2021/07/12 09:02:19;;;;;;;18.80;17.30;;;22.60;67.70;;;;;;4992002;29;20144;-71
2021/07/12 09:04:54;;;;;;;19.23;17.73;;;22.70;67.10;;;;;;4991468;29;20118;-70
2021/07/12 09:07:29;;;;;;;108.60;26.55;;;22.80;65.30;;;;;;5010810;29;20053;-70
2021/07/12 09:10:13;;;;;;;29.73;19.63;;;22.80;66.00;;;;;;5021196;29;20041;-70
2021/07/12 09:12:49;;;;;;;19.45;17.67;;;22.90;66.00;;;;;;5020072;29;20093;-71
2021/07/12 09:15:24;;;;;;;19.27;17.77;;;23.00;65.50;;;;;;5018559;29;20200;-71
2021/07/12 09:17:56;;;;;;;19.35;17.85;;;23.00;62.40;;;;;;5021628;29;20073;-70
2021/07/12 09:20:29;;;;;;;18.85;17.45;;;23.10;64.60;;;;;;5020635;29;20545;-71
2021/07/12 09:23:20;;;;;;;18.70;17.30;;;23.10;65.20;;;;;;5021593;29;20049;-71
2021/07/12 09:26:03;;;;;;;19.55;17.98;;;23.10;64.30;;;;;;5019630;29;20049;-71
2021/07/12 09:28:44;;;;;;;19.42;17.92;;;23.20;65.00;;;;;;5034671;29;20042;-70
2021/07/12 09:31:31;;;;;;;19.80;18.15;;;23.30;65.90;;;;;;5034740;29;20049;-73
2021/07/12 09:34:03;;;;;;;19.48;17.98;;;23.40;65.30;;;;;;5017985;29;20068;-71
2021/07/12 09:36:38;;;;;;;19.70;18.20;;;23.50;65.90;;;;;;5020905;29;20048;-70
2021/07/12 09:39:28;;;;;;;19.50;18.02;;;23.60;66.30;;;;;;5035132;29;20686;-70
2021/07/12 09:42:03;;;;;;;18.80;17.38;;;23.70;65.40;;;;;;5020202;29;20147;-71
2021/07/12 09:44:38;;;;;;;19.50;18.02;;;23.60;67.00;;;;;;5018498;29;20041;-70
2021/07/12 09:47:14;;;;;;;19.15;17.65;;;23.70;66.00;;;;;;5017417;29;20492;-71
2021/07/12 09:49:50;;;;;;;19.50;18.00;;;23.70;66.70;;;;;;5019417;29;20538;-71
2021/07/12 09:52:22;;;;;;;19.58;17.98;;;23.70;66.90;;;;;;5018881;29;20129;-72
2021/07/12 09:54:54;;;;;;;19.60;18.10;;;23.80;66.10;;;;;;5018046;29;20085;-70
2021/07/12 09:57:29;;;;;;;41.58;21.65;;;23.90;67.10;;;;;;5033146;29;20055;-70
2021/07/12 10:00:06;;;;;;;20.13;18.42;;;24.00;66.90;;;;;;5019569;29;20056;-70
2021/07/12 10:02:46;;;;;;;20.08;18.48;;;24.10;67.10;;;;;;5019917;29;20136;-72
2021/07/12 10:05:18;;;;;;;20.35;18.70;;;24.20;68.60;;;;;;5018826;29;20158;-71
2021/07/12 10:07:50;;;;;;;20.08;18.48;;;24.30;66.90;;;;;;5035143;29;20133;-71
2021/07/12 10:10:22;;;;;;;19.92;18.35;;;24.40;65.60;;;;;;5018779;29;20113;-70
2021/07/12 10:12:54;;;;;;;20.33;18.73;;;24.40;66.40;;;;;;5020159;29;20712;-71
2021/07/12 10:15:26;;;;;;;20.08;18.38;;;24.60;66.20;;;;;;5018161;29;20049;-71
2021/07/12 10:17:58;;;;;;;20.27;18.52;;;24.60;62.90;;;;;;5020326;29;20048;-70
2021/07/12 10:20:33;;;;;;;20.25;18.73;;;24.60;63.60;;;;;;5019241;29;20133;-70
2021/07/12 10:23:07;;;;;;;20.42;18.83;;;24.70;65.90;;;;;;5019869;29;20045;-70
2021/07/12 10:25:46;;;;;;;20.55;18.75;;;24.70;64.40;;;;;;5018610;29;20057;-72
2021/07/12 10:28:43;;;;;;;21.02;18.83;;;24.80;64.70;;;;;;5020349;29;20053;-71
2021/07/12 10:31:20;;;;;;;20.13;18.42;;;24.80;64.20;;;;;;5019586;29;20064;-70
2021/07/12 10:33:52;;;;;;;19.88;18.27;;;24.80;63.10;;;;;;5019551;29;20056;-69
2021/07/12 10:36:40;;;;;;;19.83;18.33;;;24.80;62.50;;;;;;5018711;29;20073;-72
2021/07/12 10:39:12;;;;;;;20.00;18.38;;;24.90;63.00;;;;;;5019380;29;20518;-72
2021/07/12 10:41:48;;;;;;;20.35;18.50;;;25.00;61.50;;;;;;5019119;29;20037;-72
2021/07/12 10:44:21;;;;;;;22.77;20.42;;;25.00;60.70;;;;;;5019023;29;20053;-72
2021/07/12 10:46:54;;;;;;;19.92;18.30;;;25.10;62.30;;;;;;5019285;29;20053;-72
2021/07/12 10:49:32;;;;;;;20.75;18.75;;;25.10;61.00;;;;;;5019453;29;20065;-72
2021/07/12 10:52:05;;;;;;;20.42;18.50;;;25.10;60.30;;;;;;5018744;29;20053;-72
2021/07/12 10:55:00;;;;;;;86.53;23.95;;;25.10;60.40;;;;;;5016180;29;20060;-72
2021/07/12 10:57:33;;;;;;;20.05;18.15;;;25.20;59.50;;;;;;5033266;29;20050;-72
2021/07/12 11:00:10;;;;;;;19.95;18.35;;;25.20;57.10;;;;;;5017961;29;20125;-72
2021/07/12 11:02:43;;;;;;;19.88;18.10;;;25.30;55.30;;;;;;5019781;29;20684;-72
2021/07/12 11:05:16;;;;;;;20.27;18.67;;;25.40;56.60;;;;;;5017348;29;20064;-71
2021/07/12 11:07:49;;;;;;;19.95;18.35;;;25.40;58.60;;;;;;5002974;29;20053;-71
2021/07/12 11:10:25;;;;;;;20.00;18.38;;;25.50;57.80;;;;;;5017811;29;20050;-71
2021/07/12 11:13:01;;;;;;;20.25;18.67;;;25.50;57.70;;;;;;5019970;29;20761;-71
2021/07/12 11:15:37;;;;;;;20.13;18.52;;;25.60;57.80;;;;;;5017271;29;20574;-70
2021/07/12 11:18:29;;;;;;;20.48;18.88;;;25.60;56.70;;;;;;5019057;29;20049;-70
2021/07/12 11:21:04;;;;;;;21.25;19.50;;;25.80;57.70;;;;;;5018881;29;20073;-72
2021/07/12 11:23:47;;;;;;;20.63;19.13;;;25.90;59.30;;;;;;5018302;29;20546;-71
2021/07/12 11:26:20;;;;;;;20.25;18.75;;;26.00;59.90;;;;;;5018050;29;20157;-72
2021/07/12 11:28:54;;;;;;;20.45;18.95;;;26.00;56.10;;;;;;5017728;29;20595;-71
2021/07/12 11:31:52;;;;;;;21.25;19.52;;;26.00;57.70;;;;;;5031188;29;20596;-71
2021/07/12 11:34:29;;;;;;;22.98;21.08;;;26.10;58.50;;;;;;5017739;29;20045;-71
2021/07/12 11:37:09;;;;;;;20.50;19.00;;;26.20;57.50;;;;;;5017936;29;20057;-71
2021/07/12 11:39:49;;;;;;;20.98;19.38;;;26.30;56.80;;;;;;5018645;29;20061;-70
2021/07/12 11:42:24;;;;;;;21.17;19.48;;;26.40;58.30;;;;;;5019793;29;20144;-72
2021/07/12 11:45:05;;;;;;;21.17;19.58;;;26.50;56.90;;;;;;5018053;29;20124;-71
2021/07/12 11:47:43;;;;;;;21.13;19.52;;;26.50;57.00;;;;;;5032191;29;20102;-72
2021/07/12 11:50:18;;;;;;;20.88;19.17;;;26.60;57.80;;;;;;5017492;29;20094;-71
2021/07/12 11:52:53;;;;;;;20.42;18.92;;;26.60;60.00;;;;;;5019854;29;20054;-71
2021/07/12 11:55:31;;;;;;;21.38;19.67;;;26.70;59.50;;;;;;5015839;29;20156;-71
2021/07/12 11:58:05;;;;;;;20.85;19.35;;;26.70;57.10;;;;;;5018389;29;20045;-72
2021/07/12 12:00:39;;;;;;;21.63;19.83;;;26.70;56.50;;;;;;5017647;29;20471;-71
2021/07/12 12:03:13;;;;;;;21.05;19.45;;;26.70;58.20;;;;;;5018301;29;20110;-71
2021/07/12 12:05:46;;;;;;;21.05;19.45;;;26.70;57.30;;;;;;5017204;29;20049;-71
2021/07/12 12:08:18;;;;;;;20.88;19.15;;;26.80;56.30;;;;;;5018365;29;20081;-71
2021/07/12 12:10:54;;;;;;;21.70;20.00;;;26.70;56.30;;;;;;5018274;29;20105;-72
2021/07/12 12:13:28;;;;;;;20.17;18.67;;;26.70;57.70;;;;;;5018914;29;20049;-72
2021/07/12 12:16:00;;;;;;;20.90;19.30;;;26.70;56.10;;;;;;5016988;29;20068;-71
2021/07/12 12:18:39;;;;;;;21.25;19.55;;;26.70;56.30;;;;;;5018683;29;20051;-71
2021/07/12 12:21:11;;;;;;;21.48;19.88;;;26.80;56.40;;;;;;5018211;29;20053;-73
2021/07/12 12:23:43;;;;;;;21.55;19.75;;;26.80;56.80;;;;;;5018349;29;20049;-71
2021/07/12 12:26:22;;;;;;;21.30;19.70;;;26.90;58.20;;;;;;5018061;29;20132;-71
2021/07/12 12:28:57;;;;;;;21.48;19.88;;;27.00;56.30;;;;;;5019104;29;20066;-71
2021/07/12 12:31:30;;;;;;;21.08;19.40;;;27.10;57.60;;;;;;5018237;29;20156;-71
2021/07/12 12:34:05;;;;;;;20.70;19.10;;;27.20;56.80;;;;;;5016548;29;20073;-72
2021/07/12 12:36:39;;;;;;;21.00;19.30;;;27.10;56.00;;;;;;5031963;29;20106;-71
2021/07/12 12:39:17;;;;;;;20.45;18.92;;;27.00;53.80;;;;;;5021987;29;20160;-71
2021/07/12 12:41:51;;;;;;;21.33;19.73;;;27.00;55.50;;;;;;5020066;29;20129;-70
2021/07/12 12:44:40;;;;;;;21.30;19.60;;;27.20;57.50;;;;;;5020620;29;20072;-71
2021/07/12 12:47:12;;;;;;;21.38;19.77;;;27.20;57.50;;;;;;5021558;29;20499;-70
2021/07/12 12:49:46;;;;;;;21.30;19.70;;;27.20;52.60;;;;;;5034869;29;20057;-71
2021/07/12 12:52:18;;;;;;;21.80;20.00;;;27.10;54.50;;;;;;5034930;29;20077;-70
2021/07/12 12:54:51;;;;;;;21.23;19.63;;;27.00;51.90;;;;;;5020491;29;20657;-72
2021/07/12 12:57:28;;;;;;;21.60;19.83;;;26.80;53.60;;;;;;5020618;29;20073;-72
2021/07/12 13:00:12;;;;;;;21.70;20.00;;;26.70;53.60;;;;;;5021332;29;20050;-72
2021/07/12 13:02:46;;;;;;;21.30;19.70;;;26.70;55.30;;;;;;5021587;29;20168;-70
2021/07/12 13:05:20;;;;;;;21.63;20.02;;;26.80;53.30;;;;;;5018990;29;20144;-73
2021/07/12 13:08:03;;;;;;;21.52;19.92;;;27.00;54.80;;;;;;5021378;29;20874;-71